Deer Lake, Washington
Current Conditions -  °F | °C
As of 1:53 PM on Wednesday 28 Jan 2015 (Local Time) from KDEW Reporting Station
Overcast Overcast  
Wind Chill: 33°   Ceiling: 700
Heat Index: 37°   Visibility: 10mi
Dew Point: 34°   Wind: 5mph
Humidity: 89%   Direction: 30°NNE
Pressure: 30.4"   Gusts: NA
Location:  48.1077°N, 117.582°W
Report Text: KDEW 282153Z AUTO 03004KT 10SM OVC007 03/01 A3040 RMK AO2 SLP314 T00280011
Loading
Personal Weather Stations






























Interactive Weather Map New forecast layout! Learn more

10-Day Weather Forecast

Advertisements
Track Severe Weather on mobile